< Typhoon 195521 1955 Season Typhoon 195523 >
Typhoon 195522 (LOUISE)
General InformationTrack Information on Google Maps || Disaster Info.ResourceGoogle EarthGE AnimationAtom FeedGeoJSON
Detalied Best Track (Time Zone = UTC)
Year Month Day Hour Lat. Long. Pressure (hPa) Wind (kt) Class Image Chart
1955 9 20 00 13.0 150.0 1006 0 2 -- Chart
1955 9 20 06 13.2 149.3 1004 0 2 -- Chart
1955 9 20 12 13.6 148.5 1004 0 2 -- Chart
1955 9 20 18 13.9 147.7 1002 0 2 -- Chart
1955 9 21 00 14.2 146.9 1002 0 2 -- Chart
1955 9 21 06 14.8 146.2 1001 0 9 -- Chart
1955 9 21 12 15.2 146.2 1001 0 9 -- Chart
1955 9 21 18 15.4 146.2 1001 0 9 -- Chart
1955 9 22 00 15.8 146.2 1000 0 9 -- Chart
1955 9 22 06 16.4 146.0 995 0 9 -- Chart
1955 9 22 12 16.7 146.0 995 0 9 -- Chart
1955 9 22 18 17.2 146.3 995 0 9 -- Chart
1955 9 23 00 17.8 146.3 995 0 9 -- Chart
1955 9 23 06 18.3 145.8 995 0 9 -- Chart
1955 9 23 12 19.1 145.5 985 0 9 -- Chart
1955 9 23 18 20.0 145.1 975 0 9 -- Chart
1955 9 24 00 21.0 144.7 965 0 9 -- Chart
1955 9 24 06 22.0 144.2 955 0 9 -- Chart
1955 9 24 12 23.0 143.3 945 0 9 -- Chart
1955 9 24 18 23.9 142.4 930 0 9 -- Chart
1955 9 25 00 24.2 142.3 930 0 9 -- Chart
1955 9 25 06 24.3 141.7 930 0 9 -- Chart
1955 9 25 12 25.0 140.7 935 0 9 -- Chart
1955 9 25 18 25.1 139.4 935 0 9 -- Chart
1955 9 26 00 25.1 138.3 940 0 9 -- Chart
1955 9 26 06 25.4 137.6 940 0 9 -- Chart
1955 9 26 12 25.8 136.6 940 0 9 -- Chart
1955 9 26 18 26.2 135.4 940 0 9 -- Chart
1955 9 27 00 26.4 134.2 935 0 9 -- Chart
1955 9 27 06 26.0 134.2 935 0 9 -- Chart
1955 9 27 12 26.7 134.3 950 0 9 -- Chart
1955 9 27 18 26.9 133.6 945 0 9 -- Chart
1955 9 28 00 27.3 132.7 945 0 9 -- Chart
1955 9 28 06 27.5 131.7 940 0 9 -- Chart
1955 9 28 12 28.0 131.0 935 0 9 -- Chart
1955 9 28 18 28.5 130.9 940 0 9 -- Chart
1955 9 29 00 29.0 130.6 940 0 9 -- Chart
1955 9 29 06 29.8 130.4 940 0 9 -- Chart
1955 9 29 12 30.8 130.5 940 0 9 -- Chart
1955 9 29 18 32.9 130.8 955 0 9 -- Chart
1955 9 30 00 34.7 130.9 975 0 9 -- Chart
1955 9 30 06 36.7 132.2 980 0 9 -- Chart
1955 9 30 12 38.9 134.8 980 0 9 -- Chart
1955 9 30 18 41.5 138.8 985 0 6 -- Chart
1955 10 1 00 43.2 143.5 990 0 6 -- Chart
1955 10 1 06 46.7 151.0 992 0 6 -- Chart
1955 10 1 12 50.0 156.5 989 0 6 -- Chart
1955 10 1 18 54.0 164.0 988 0 6 -- Chart
1955 10 2 00 61.0 174.0 982 0 6 -- Chart
1955 10 2 06 61.0 180.0 970 0 6 -- Chart
1955 10 2 12 61.0 185.0 960 0 6 -- Chart
Japan Meteorological Agency Best Track Data | Correction Date : 1991-07-16
< Typhoon 195521 1955 Season Typhoon 195523 >

Help